createdAt,value
2022-12-18T00:02:49.779Z,23.83
2022-12-18T00:05:53.273Z,27.15
2022-12-18T00:08:57.463Z,29.83
2022-12-18T00:11:59.790Z,24.80
2022-12-18T00:15:02.137Z,26.35
2022-12-18T00:18:05.537Z,27.42
2022-12-18T00:21:11.341Z,27.57
2022-12-18T00:24:13.713Z,30.17
2022-12-18T00:27:16.095Z,28.83
2022-12-18T00:30:18.684Z,29.52
2022-12-18T00:33:21.017Z,34.05
2022-12-18T00:36:29.101Z,27.08
2022-12-18T00:39:31.502Z,29.25
2022-12-18T00:42:53.550Z,27.97
2022-12-18T00:45:55.944Z,30.90
2022-12-18T00:48:58.457Z,28.48
2022-12-18T00:52:00.810Z,29.30
2022-12-18T00:55:06.435Z,27.80
2022-12-18T00:58:10.462Z,27.77
2022-12-18T01:01:12.843Z,31.02
2022-12-18T01:04:16.272Z,25.75
2022-12-18T01:07:21.376Z,25.73
2022-12-18T01:10:24.598Z,29.48
2022-12-18T01:13:27.766Z,30.40
2022-12-18T01:16:30.173Z,26.08
2022-12-18T01:19:33.217Z,29.10
2022-12-18T01:22:36.311Z,28.97
2022-12-18T01:25:39.647Z,26.23
2022-12-18T01:28:45.820Z,26.75
2022-12-18T01:31:48.305Z,26.48
2022-12-18T01:34:50.726Z,26.42
2022-12-18T01:37:56.210Z,25.67
2022-12-18T01:40:59.816Z,25.77
2022-12-18T01:44:02.122Z,23.60
2022-12-18T01:47:04.774Z,29.27
2022-12-18T01:50:15.727Z,24.73
2022-12-18T01:53:24.579Z,24.93
2022-12-18T01:56:27.030Z,25.77
2022-12-18T01:59:32.386Z,27.35
2022-12-18T02:02:35.274Z,25.52
2022-12-18T02:06:02.335Z,27.27
2022-12-18T02:09:19.384Z,27.98
2022-12-18T02:12:25.515Z,27.15
2022-12-18T02:15:49.398Z,26.57
2022-12-18T02:18:59.118Z,29.70
2022-12-18T02:22:13.243Z,24.42
2022-12-18T02:25:43.634Z,27.70
2022-12-18T02:29:01.479Z,23.52
2022-12-18T02:32:11.458Z,26.38
2022-12-18T02:35:19.612Z,20.33
2022-12-18T02:38:23.681Z,23.40
2022-12-18T02:41:28.398Z,26.33
2022-12-18T02:44:30.814Z,28.33
2022-12-18T02:47:39.094Z,21.83
2022-12-18T02:51:28.936Z,21.17
2022-12-18T02:54:54.570Z,24.92
2022-12-18T02:58:11.435Z,29.03
2022-12-18T03:01:24.175Z,27.65
2022-12-18T03:04:39.418Z,22.77
2022-12-18T03:07:57.330Z,21.52
2022-12-18T03:11:05.708Z,22.40
2022-12-18T03:14:12.519Z,20.67
2022-12-18T03:17:20.410Z,24.52
2022-12-18T03:20:25.592Z,23.33
2022-12-18T03:23:35.602Z,22.95
2022-12-18T03:26:44.561Z,23.40
2022-12-18T03:30:11.195Z,22.10
2022-12-18T03:33:20.720Z,20.92
2022-12-18T03:36:25.705Z,26.73
2022-12-18T03:39:28.366Z,20.83
2022-12-18T03:42:40.438Z,20.27
2022-12-18T03:45:58.584Z,19.33
2022-12-18T03:49:23.534Z,24.60
2022-12-18T03:52:25.954Z,23.40
2022-12-18T03:55:34.588Z,29.80
2022-12-18T03:58:42.276Z,28.08
2022-12-18T04:01:56.003Z,26.70
2022-12-18T04:05:03.668Z,25.90
2022-12-18T04:08:06.288Z,29.50
2022-12-18T04:11:12.360Z,24.15
2022-12-18T04:14:17.988Z,27.65
2022-12-18T04:17:22.902Z,29.98
2022-12-18T04:20:25.878Z,25.80
2022-12-18T04:23:29.387Z,25.57
2022-12-18T04:26:34.214Z,26.50
2022-12-18T04:29:50.345Z,29.63
2022-12-18T04:32:54.135Z,31.13
2022-12-18T04:35:57.723Z,30.38
2022-12-18T04:39:01.522Z,30.40
2022-12-18T04:42:04.035Z,36.72
2022-12-18T04:45:07.159Z,31.02
2022-12-18T04:48:09.618Z,33.92
2022-12-18T04:51:12.951Z,31.17
2022-12-18T04:54:15.310Z,30.07
2022-12-18T04:57:19.023Z,31.20
2022-12-18T05:00:21.811Z,30.70
2022-12-18T05:03:24.251Z,31.67
2022-12-18T05:06:26.659Z,34.42
2022-12-18T05:09:29.026Z,31.17
2022-12-18T05:12:32.530Z,34.00
2022-12-18T05:15:35.372Z,30.58
2022-12-18T05:18:38.083Z,29.15
2022-12-18T05:21:40.416Z,36.10
2022-12-18T05:24:42.801Z,33.27
2022-12-18T05:27:45.951Z,38.17
2022-12-18T05:30:53.332Z,38.50
2022-12-18T05:33:55.753Z,43.03
2022-12-18T05:36:58.148Z,47.20
2022-12-18T05:40:00.667Z,51.25
2022-12-18T05:43:03.054Z,53.88
2022-12-18T05:46:12.639Z,50.53
2022-12-18T05:49:15.225Z,55.88
2022-12-18T05:52:17.834Z,48.05
2022-12-18T05:55:20.204Z,51.07
2022-12-18T05:58:22.584Z,51.50
2022-12-18T06:01:27.439Z,48.60
2022-12-18T06:04:30.045Z,47.53
2022-12-18T06:07:32.387Z,43.88
2022-12-18T06:10:34.823Z,57.22
2022-12-18T06:13:39.288Z,52.17
2022-12-18T06:16:41.950Z,56.20
2022-12-18T06:19:44.301Z,59.42
2022-12-18T06:22:46.866Z,62.97
2022-12-18T06:25:49.182Z,54.87
2022-12-18T06:28:51.556Z,62.22
2022-12-18T06:31:54.006Z,60.35
2022-12-18T06:34:56.546Z,45.83
2022-12-18T06:37:58.949Z,46.45
2022-12-18T06:41:01.473Z,45.20
2022-12-18T06:44:04.126Z,36.17
2022-12-18T06:47:06.503Z,39.17
2022-12-18T06:50:08.934Z,41.38
2022-12-18T06:53:11.291Z,36.17
2022-12-18T06:56:13.882Z,34.50
2022-12-18T06:59:16.339Z,44.25
2022-12-18T07:02:19.018Z,37.95
2022-12-18T07:05:21.490Z,40.40
2022-12-18T07:08:24.059Z,38.10
2022-12-18T07:11:26.557Z,40.85
2022-12-18T07:14:28.937Z,40.92
2022-12-18T07:17:32.334Z,45.00
2022-12-18T07:20:34.762Z,55.40
2022-12-18T07:23:37.880Z,53.83
2022-12-18T07:26:40.518Z,49.33
2022-12-18T07:29:42.879Z,47.33
2022-12-18T07:32:45.238Z,47.33
2022-12-18T07:35:47.624Z,42.30
2022-12-18T07:38:50.757Z,55.35
2022-12-18T07:42:11.578Z,47.30
2022-12-18T07:45:16.005Z,83.45
2022-12-18T07:48:18.410Z,48.88
2022-12-18T07:51:20.895Z,51.47
2022-12-18T07:54:24.138Z,50.10
2022-12-18T07:57:49.413Z,45.93
2022-12-18T08:00:48.896Z,54.08
2022-12-18T08:03:52.213Z,47.45
2022-12-18T08:06:54.783Z,49.30
2022-12-18T08:09:57.186Z,51.55
2022-12-18T08:13:04.555Z,50.15
2022-12-18T08:16:09.070Z,55.65
2022-12-18T08:19:11.550Z,54.40
2022-12-18T08:22:13.970Z,170.65
2022-12-18T08:25:16.524Z,123.72
2022-12-18T08:28:19.046Z,64.43
2022-12-18T08:31:22.354Z,57.35
2022-12-18T08:34:25.949Z,49.40
2022-12-18T08:37:28.346Z,49.00
2022-12-18T08:40:30.799Z,48.88
2022-12-18T08:43:51.944Z,48.97
2022-12-18T08:46:54.312Z,44.67
2022-12-18T08:49:56.827Z,53.33
2022-12-18T08:52:59.218Z,47.25
2022-12-18T08:56:01.582Z,47.22
2022-12-18T08:59:05.391Z,52.73
2022-12-18T09:02:10.988Z,52.47
2022-12-18T09:05:13.580Z,54.22
2022-12-18T09:08:15.925Z,63.03
2022-12-18T09:11:24.391Z,59.15
2022-12-18T09:14:26.823Z,66.63
2022-12-18T09:17:29.259Z,62.20
2022-12-18T09:20:31.646Z,63.42
2022-12-18T09:23:34.047Z,65.80
2022-12-18T09:26:37.415Z,54.30
2022-12-18T09:29:40.594Z,54.80
2022-12-18T09:32:43.002Z,53.67
2022-12-18T09:35:46.567Z,54.88
2022-12-18T09:38:49.092Z,52.80
2022-12-18T09:41:58.951Z,52.97
2022-12-18T09:45:01.973Z,57.03
2022-12-18T09:48:08.117Z,56.72
2022-12-18T09:51:18.515Z,43.63
2022-12-18T09:54:31.307Z,47.47
2022-12-18T09:57:38.393Z,51.67
2022-12-18T10:00:44.085Z,46.10
2022-12-18T10:03:46.836Z,48.75
2022-12-18T10:07:17.722Z,42.40
2022-12-18T10:10:50.561Z,45.20
2022-12-18T10:13:56.482Z,38.25
2022-12-18T10:17:09.323Z,46.42
2022-12-18T10:20:30.356Z,38.10
2022-12-18T10:23:58.314Z,33.40
2022-12-18T10:27:15.515Z,39.40
2022-12-18T10:30:20.639Z,40.85
2022-12-18T10:33:25.502Z,37.97
2022-12-18T10:36:27.907Z,42.47
2022-12-18T10:39:30.402Z,39.97
2022-12-18T10:42:32.922Z,39.07
2022-12-18T10:45:36.105Z,40.30
2022-12-18T10:48:48.524Z,35.55
2022-12-18T10:51:52.495Z,38.50
2022-12-18T10:55:04.746Z,41.33
2022-12-18T10:58:35.317Z,35.97
2022-12-18T11:01:48.697Z,36.88
2022-12-18T11:04:52.805Z,37.63
2022-12-18T11:07:55.481Z,39.70
2022-12-18T11:10:57.907Z,43.53
2022-12-18T11:14:05.345Z,48.23
2022-12-18T11:17:29.219Z,53.45
2022-12-18T11:20:37.530Z,43.28
2022-12-18T11:24:18.731Z,41.70
2022-12-18T11:27:21.961Z,34.03
2022-12-18T11:30:27.136Z,33.35
2022-12-18T11:33:29.568Z,39.20
2022-12-18T11:36:38.003Z,48.90
2022-12-18T11:39:53.947Z,50.10
2022-12-18T11:43:04.858Z,45.85
2022-12-18T11:46:19.664Z,43.50
2022-12-18T11:49:27.884Z,49.63
2022-12-18T11:52:39.241Z,50.10
2022-12-18T11:56:30.615Z,52.90
2022-12-18T11:59:46.283Z,50.63
2022-12-18T12:02:57.641Z,52.40
2022-12-18T12:06:20.531Z,51.17
2022-12-18T12:09:34.998Z,57.60
2022-12-18T12:12:55.734Z,58.42
2022-12-18T12:16:10.870Z,53.97
2022-12-18T12:19:37.914Z,48.07
2022-12-18T12:23:16.200Z,52.78
2022-12-18T12:26:41.472Z,41.10
2022-12-18T12:30:00.051Z,45.53
2022-12-18T12:33:22.362Z,47.15
2022-12-18T12:36:47.933Z,46.90
2022-12-18T12:39:53.601Z,45.42
2022-12-18T12:43:14.372Z,49.10
2022-12-18T12:46:20.933Z,47.15
2022-12-18T12:49:30.113Z,39.35
2022-12-18T12:52:52.018Z,46.47
2022-12-18T12:55:55.919Z,43.70
2022-12-18T12:59:24.600Z,43.95
2022-12-18T13:02:34.338Z,41.88
2022-12-18T13:05:54.077Z,40.83
2022-12-18T13:09:01.659Z,44.45
2022-12-18T13:12:34.991Z,39.92
2022-12-18T13:16:20.423Z,40.33
2022-12-18T13:19:26.378Z,47.97
2022-12-18T13:22:37.278Z,55.90
2022-12-18T13:25:39.797Z,64.73
2022-12-18T13:28:48.275Z,49.92
2022-12-18T13:31:50.637Z,63.97
2022-12-18T13:35:18.949Z,66.22
2022-12-18T13:38:36.642Z,68.38
2022-12-18T13:41:39.382Z,71.18
2022-12-18T13:44:42.757Z,67.40
2022-12-18T13:47:46.578Z,63.70
2022-12-18T13:51:10.134Z,66.78
2022-12-18T13:54:31.230Z,60.17
2022-12-18T13:57:44.766Z,70.77
2022-12-18T14:00:47.281Z,59.65
2022-12-18T14:03:51.315Z,50.85
2022-12-18T14:06:58.311Z,48.83
2022-12-18T14:10:12.618Z,56.53
2022-12-18T14:13:35.546Z,48.08
2022-12-18T14:16:37.945Z,46.15
2022-12-18T14:19:51.907Z,44.27
2022-12-18T14:22:55.463Z,51.30
2022-12-18T14:26:02.235Z,52.97
2022-12-18T14:29:28.898Z,52.73
2022-12-18T14:32:31.229Z,40.20
2022-12-18T14:35:36.278Z,64.50
2022-12-18T14:38:41.018Z,69.95
2022-12-18T14:41:43.434Z,86.20
2022-12-18T14:48:19.115Z,84.60
2022-12-18T14:51:28.193Z,80.47
2022-12-18T14:54:32.399Z,70.47
2022-12-18T14:57:38.890Z,69.43
2022-12-18T15:00:43.451Z,68.73
2022-12-18T15:03:45.970Z,77.75
2022-12-18T15:06:49.271Z,77.10
2022-12-18T15:10:23.179Z,75.32
2022-12-18T15:13:25.899Z,76.03
2022-12-18T15:16:28.985Z,73.47
2022-12-18T15:19:43.696Z,64.22
2022-12-18T15:22:48.476Z,99.10
2022-12-18T15:25:58.510Z,75.80
2022-12-18T15:29:03.695Z,68.53
2022-12-18T15:32:20.090Z,71.63
2022-12-18T15:35:25.214Z,70.63
2022-12-18T15:38:28.037Z,73.45
2022-12-18T15:41:36.040Z,66.95
2022-12-18T15:44:38.835Z,69.88
2022-12-18T15:47:44.980Z,74.32
2022-12-18T15:50:47.739Z,77.95
2022-12-18T15:53:53.910Z,72.33
2022-12-18T15:57:14.665Z,71.22
2022-12-18T16:00:17.795Z,59.70
2022-12-18T16:03:20.458Z,66.03
2022-12-18T16:06:23.572Z,56.28
2022-12-18T16:09:26.367Z,62.13
2022-12-18T16:12:29.473Z,69.38
2022-12-18T16:15:32.011Z,65.63
2022-12-18T16:18:34.635Z,60.53
2022-12-18T16:21:37.617Z,56.67
2022-12-18T16:24:40.111Z,52.07
2022-12-18T16:27:42.715Z,54.63
2022-12-18T16:30:46.467Z,51.78
2022-12-18T16:33:48.929Z,52.60
2022-12-18T16:36:51.384Z,50.03
2022-12-18T16:39:53.959Z,51.30
2022-12-18T16:42:56.371Z,54.38
2022-12-18T16:46:00.312Z,52.70
2022-12-18T16:49:02.982Z,50.28
2022-12-18T16:52:06.653Z,47.42
2022-12-18T16:55:10.027Z,49.33
2022-12-18T16:58:13.080Z,49.00
2022-12-18T17:01:15.854Z,46.92
2022-12-18T17:04:18.410Z,54.57
2022-12-18T17:07:21.167Z,61.35
2022-12-18T17:10:23.948Z,82.03
2022-12-18T17:13:27.607Z,85.78
2022-12-18T17:16:30.277Z,81.68
2022-12-18T17:19:33.975Z,74.90
2022-12-18T17:22:36.382Z,70.57
2022-12-18T17:25:41.819Z,60.80
2022-12-18T17:28:44.501Z,72.30
2022-12-18T17:31:48.139Z,56.10
2022-12-18T17:34:50.785Z,57.43
2022-12-18T17:37:53.313Z,69.07
2022-12-18T17:41:01.440Z,71.35
2022-12-18T17:44:06.205Z,61.22
2022-12-18T17:47:12.025Z,56.08
2022-12-18T17:50:14.814Z,56.03
2022-12-18T17:53:17.399Z,62.35
2022-12-18T17:56:22.084Z,52.47
2022-12-18T17:59:24.967Z,54.45
2022-12-18T18:02:27.759Z,40.72
2022-12-18T18:05:30.870Z,44.40
2022-12-18T18:08:35.208Z,42.53
2022-12-18T18:11:56.316Z,40.58
2022-12-18T18:14:59.160Z,51.90
2022-12-18T18:18:01.999Z,47.03
2022-12-18T18:21:06.303Z,48.20
2022-12-18T18:24:11.284Z,51.67
2022-12-18T18:27:14.107Z,58.90
2022-12-18T18:30:16.923Z,58.20
2022-12-18T18:33:19.659Z,62.05
2022-12-18T18:36:23.607Z,68.10
2022-12-18T18:39:26.813Z,56.40
2022-12-18T18:42:29.983Z,60.58
2022-12-18T18:45:32.619Z,45.30
2022-12-18T18:48:37.354Z,52.22
2022-12-18T18:51:41.542Z,59.85
2022-12-18T18:55:10.732Z,56.10
2022-12-18T18:58:10.134Z,44.43
2022-12-18T19:01:18.016Z,43.15
2022-12-18T19:04:20.879Z,42.80
2022-12-18T19:07:30.347Z,44.03
2022-12-18T19:10:33.675Z,36.75
2022-12-18T19:13:36.318Z,35.90
2022-12-18T19:16:39.609Z,37.42
2022-12-18T19:19:42.423Z,34.08
2022-12-18T19:22:54.972Z,43.58
2022-12-18T19:26:26.932Z,49.85
2022-12-18T19:29:26.554Z,41.67
2022-12-18T19:32:29.155Z,42.35
2022-12-18T19:35:31.744Z,53.78
2022-12-18T19:38:34.965Z,67.03
2022-12-18T19:41:38.002Z,77.80
2022-12-18T19:44:41.081Z,45.65
2022-12-18T19:47:44.023Z,29.30
2022-12-18T19:50:46.583Z,24.98
2022-12-18T19:53:54.942Z,27.00
2022-12-18T19:57:00.630Z,28.42
2022-12-18T20:00:04.139Z,28.00
2022-12-18T20:03:25.248Z,23.55
2022-12-18T20:06:32.510Z,25.67
2022-12-18T20:09:36.849Z,30.97
2022-12-18T20:12:39.822Z,30.00
2022-12-18T20:15:45.363Z,30.83
2022-12-18T20:18:49.217Z,34.75
2022-12-18T20:21:51.750Z,46.08
2022-12-18T20:24:54.300Z,49.00
2022-12-18T20:27:56.873Z,29.55
2022-12-18T20:31:02.134Z,27.77
2022-12-18T20:34:06.217Z,31.75
2022-12-18T20:37:19.462Z,21.65
2022-12-18T20:40:23.619Z,23.50
2022-12-18T20:43:26.157Z,24.67
2022-12-18T20:46:28.593Z,30.20
2022-12-18T20:49:30.997Z,37.50
2022-12-18T20:52:33.622Z,28.80
2022-12-18T20:55:41.394Z,25.83
2022-12-18T20:58:44.135Z,21.70
2022-12-18T21:01:48.813Z,25.13
2022-12-18T21:04:53.261Z,26.58
2022-12-18T21:07:55.734Z,26.83
2022-12-18T21:11:35.842Z,24.57
2022-12-18T21:14:38.269Z,26.50
2022-12-18T21:17:45.012Z,26.08
2022-12-18T21:20:47.989Z,24.70
2022-12-18T21:23:51.160Z,29.00
2022-12-18T21:26:54.465Z,31.40
2022-12-18T21:29:56.910Z,26.98
2022-12-18T21:32:59.498Z,27.13
2022-12-18T21:36:06.473Z,27.23
2022-12-18T21:39:09.114Z,24.85
2022-12-18T21:42:30.454Z,27.27
2022-12-18T21:45:33.197Z,24.70
2022-12-18T21:48:38.406Z,33.75
2022-12-18T21:51:41.222Z,37.08
2022-12-18T21:54:43.687Z,31.15
2022-12-18T21:57:46.246Z,35.05
2022-12-18T22:00:50.123Z,33.80
2022-12-18T22:03:53.045Z,28.70
2022-12-18T22:06:55.755Z,29.42
2022-12-18T22:09:58.456Z,30.05
2022-12-18T22:13:02.311Z,30.30
2022-12-18T22:16:05.050Z,34.15
2022-12-18T22:19:07.697Z,38.58
2022-12-18T22:22:10.070Z,30.15
2022-12-18T22:25:12.591Z,29.58
2022-12-18T22:28:33.323Z,24.30
2022-12-18T22:31:36.023Z,24.13
2022-12-18T22:34:39.453Z,23.63
2022-12-18T22:37:41.842Z,28.05
2022-12-18T22:40:44.213Z,27.25
2022-12-18T22:43:46.654Z,29.17
2022-12-18T22:47:05.519Z,38.55
2022-12-18T22:50:12.997Z,40.03
2022-12-18T22:53:15.378Z,37.20
2022-12-18T22:56:21.366Z,37.38
2022-12-18T22:59:24.310Z,30.60
2022-12-18T23:02:26.978Z,25.45
2022-12-18T23:05:30.958Z,33.73
2022-12-18T23:08:34.876Z,30.08
2022-12-18T23:11:37.267Z,30.88
2022-12-18T23:14:39.618Z,33.23
2022-12-18T23:17:41.981Z,29.05
2022-12-18T23:20:44.371Z,28.23
2022-12-18T23:23:46.810Z,25.20
2022-12-18T23:26:49.210Z,28.10
2022-12-18T23:29:51.585Z,33.03
2022-12-18T23:32:55.118Z,33.33
2022-12-18T23:36:02.209Z,36.70
2022-12-18T23:39:04.718Z,38.05
2022-12-18T23:42:07.092Z,33.08
2022-12-18T23:45:15.859Z,53.07
2022-12-18T23:48:21.154Z,33.35
2022-12-18T23:51:25.627Z,31.95
2022-12-18T23:54:33.232Z,30.10
2022-12-18T23:57:36.139Z,29.50
